sensor_id;sensor_type;location;lat;lon;timestamp;P1;P2;P0
75946;PMS5003;64628;50.104;14.614;2023-03-14T00:00:43;25;24;
75946;PMS5003;64628;50.104;14.614;2023-03-14T00:03:09;27;24;
75946;PMS5003;64628;50.104;14.614;2023-03-14T00:05:34;51;42;
75946;PMS5003;64628;50.104;14.614;2023-03-14T00:07:59;32;29;
75946;PMS5003;64628;50.104;14.614;2023-03-14T00:10:25;41;35;
75946;PMS5003;64628;50.104;14.614;2023-03-14T00:12:50;35;28;
75946;PMS5003;64628;50.104;14.614;2023-03-14T00:15:16;25;22;
75946;PMS5003;64628;50.104;14.614;2023-03-14T00:17:42;27;23;
75946;PMS5003;64628;50.104;14.614;2023-03-14T00:20:07;26;18;
75946;PMS5003;64628;50.104;14.614;2023-03-14T00:22:32;27;24;
75946;PMS5003;64628;50.104;14.614;2023-03-14T00:24:58;26;21;
75946;PMS5003;64628;50.104;14.614;2023-03-14T00:27:23;24;21;
75946;PMS5003;64628;50.104;14.614;2023-03-14T00:29:48;39;31;
75946;PMS5003;64628;50.104;14.614;2023-03-14T00:32:13;34;27;
75946;PMS5003;64628;50.104;14.614;2023-03-14T00:34:39;27;27;
75946;PMS5003;64628;50.104;14.614;2023-03-14T00:37:05;25;23;
75946;PMS5003;64628;50.104;14.614;2023-03-14T00:39:30;23;19;
75946;PMS5003;64628;50.104;14.614;2023-03-14T00:41:55;27;19;
75946;PMS5003;64628;50.104;14.614;2023-03-14T00:44:21;31;30;
75946;PMS5003;64628;50.104;14.614;2023-03-14T00:46:47;31;27;
75946;PMS5003;64628;50.104;14.614;2023-03-14T00:49:12;28;23;
75946;PMS5003;64628;50.104;14.614;2023-03-14T00:51:38;33;26;
75946;PMS5003;64628;50.104;14.614;2023-03-14T00:54:04;29;24;
75946;PMS5003;64628;50.104;14.614;2023-03-14T00:56:30;29;26;
75946;PMS5003;64628;50.104;14.614;2023-03-14T00:58:54;26;22;
75946;PMS5003;64628;50.104;14.614;2023-03-14T01:01:20;25;20;
75946;PMS5003;64628;50.104;14.614;2023-03-14T01:03:45;32;26;
75946;PMS5003;64628;50.104;14.614;2023-03-14T01:06:12;26;25;
75946;PMS5003;64628;50.104;14.614;2023-03-14T01:08:36;26;23;
75946;PMS5003;64628;50.104;14.614;2023-03-14T01:11:04;25;23;
75946;PMS5003;64628;50.104;14.614;2023-03-14T01:13:27;23;23;
75946;PMS5003;64628;50.104;14.614;2023-03-14T01:15:52;29;26;
75946;PMS5003;64628;50.104;14.614;2023-03-14T01:18:18;24;20;
75946;PMS5003;64628;50.104;14.614;2023-03-14T01:20:43;23;21;
75946;PMS5003;64628;50.104;14.614;2023-03-14T01:23:09;25;23;
75946;PMS5003;64628;50.104;14.614;2023-03-14T01:25:34;23;18;
75946;PMS5003;64628;50.104;14.614;2023-03-14T01:28:00;29;23;
75946;PMS5003;64628;50.104;14.614;2023-03-14T01:30:25;25;22;
75946;PMS5003;64628;50.104;14.614;2023-03-14T01:32:50;30;25;
75946;PMS5003;64628;50.104;14.614;2023-03-14T01:35:15;21;18;
75946;PMS5003;64628;50.104;14.614;2023-03-14T01:37:41;28;21;
75946;PMS5003;64628;50.104;14.614;2023-03-14T01:40:09;22;19;
75946;PMS5003;64628;50.104;14.614;2023-03-14T01:42:32;18;18;
75946;PMS5003;64628;50.104;14.614;2023-03-14T01:44:58;18;18;
75946;PMS5003;64628;50.104;14.614;2023-03-14T01:47:23;19;15;
75946;PMS5003;64628;50.104;14.614;2023-03-14T01:49:48;26;24;
75946;PMS5003;64628;50.104;14.614;2023-03-14T01:52:14;19;17;
75946;PMS5003;64628;50.104;14.614;2023-03-14T01:54:39;25;18;
75946;PMS5003;64628;50.104;14.614;2023-03-14T01:57:06;24;22;
75946;PMS5003;64628;50.104;14.614;2023-03-14T01:59:30;18;16;
75946;PMS5003;64628;50.104;14.614;2023-03-14T02:01:55;24;19;
75946;PMS5003;64628;50.104;14.614;2023-03-14T02:04:20;22;18;
75946;PMS5003;64628;50.104;14.614;2023-03-14T02:06:49;19;19;
75946;PMS5003;64628;50.104;14.614;2023-03-14T02:09:11;18;15;
75946;PMS5003;64628;50.104;14.614;2023-03-14T02:11:36;22;19;
75946;PMS5003;64628;50.104;14.614;2023-03-14T02:14:01;15;13;
75946;PMS5003;64628;50.104;14.614;2023-03-14T02:16:27;22;17;
75946;PMS5003;64628;50.104;14.614;2023-03-14T02:18:52;19;17;
75946;PMS5003;64628;50.104;14.614;2023-03-14T02:21:18;19;17;
75946;PMS5003;64628;50.104;14.614;2023-03-14T02:23:45;24;20;
75946;PMS5003;64628;50.104;14.614;2023-03-14T02:26:08;26;18;
75946;PMS5003;64628;50.104;14.614;2023-03-14T02:28:33;19;16;
75946;PMS5003;64628;50.104;14.614;2023-03-14T02:30:59;20;20;
75946;PMS5003;64628;50.104;14.614;2023-03-14T02:33:24;20;18;
75946;PMS5003;64628;50.104;14.614;2023-03-14T02:35:50;24;24;
75946;PMS5003;64628;50.104;14.614;2023-03-14T02:38:17;27;23;
75946;PMS5003;64628;50.104;14.614;2023-03-14T02:40:40;31;29;
75946;PMS5003;64628;50.104;14.614;2023-03-14T02:43:06;25;20;
75946;PMS5003;64628;50.104;14.614;2023-03-14T02:45:34;23;22;
75946;PMS5003;64628;50.104;14.614;2023-03-14T02:47:58;26;24;
75946;PMS5003;64628;50.104;14.614;2023-03-14T02:50:24;24;18;
75946;PMS5003;64628;50.104;14.614;2023-03-14T02:52:48;22;18;
75946;PMS5003;64628;50.104;14.614;2023-03-14T02:55:14;32;23;
75946;PMS5003;64628;50.104;14.614;2023-03-14T02:57:39;24;18;
75946;PMS5003;64628;50.104;14.614;2023-03-14T03:00:05;29;24;
75946;PMS5003;64628;50.104;14.614;2023-03-14T03:02:31;24;20;
75946;PMS5003;64628;50.104;14.614;2023-03-14T03:04:56;24;20;
75946;PMS5003;64628;50.104;14.614;2023-03-14T03:07:21;20;19;
75946;PMS5003;64628;50.104;14.614;2023-03-14T03:09:47;26;20;
75946;PMS5003;64628;50.104;14.614;2023-03-14T03:12:12;24;23;
75946;PMS5003;64628;50.104;14.614;2023-03-14T03:14:37;27;26;
75946;PMS5003;64628;50.104;14.614;2023-03-14T03:17:03;29;27;
75946;PMS5003;64628;50.104;14.614;2023-03-14T03:19:29;30;25;
75946;PMS5003;64628;50.104;14.614;2023-03-14T03:21:54;25;22;
75946;PMS5003;64628;50.104;14.614;2023-03-14T03:24:20;33;26;
75946;PMS5003;64628;50.104;14.614;2023-03-14T03:26:45;31;29;
75946;PMS5003;64628;50.104;14.614;2023-03-14T03:29:11;29;26;
75946;PMS5003;64628;50.104;14.614;2023-03-14T03:31:36;30;29;
75946;PMS5003;64628;50.104;14.614;2023-03-14T03:34:02;26;25;
75946;PMS5003;64628;50.104;14.614;2023-03-14T03:36:27;29;24;
75946;PMS5003;64628;50.104;14.614;2023-03-14T03:38:52;24;24;
75946;PMS5003;64628;50.104;14.614;2023-03-14T03:41:17;25;22;
75946;PMS5003;64628;50.104;14.614;2023-03-14T03:43:43;25;23;
75946;PMS5003;64628;50.104;14.614;2023-03-14T03:46:09;29;22;
75946;PMS5003;64628;50.104;14.614;2023-03-14T03:48:35;25;19;
75946;PMS5003;64628;50.104;14.614;2023-03-14T03:50:59;23;22;
75946;PMS5003;64628;50.104;14.614;2023-03-14T03:53:25;30;23;
75946;PMS5003;64628;50.104;14.614;2023-03-14T03:55:50;26;24;
75946;PMS5003;64628;50.104;14.614;2023-03-14T03:58:15;35;28;
75946;PMS5003;64628;50.104;14.614;2023-03-14T04:00:41;26;23;
75946;PMS5003;64628;50.104;14.614;2023-03-14T04:03:06;29;24;
75946;PMS5003;64628;50.104;14.614;2023-03-14T04:05:32;29;26;
75946;PMS5003;64628;50.104;14.614;2023-03-14T04:07:57;28;25;
75946;PMS5003;64628;50.104;14.614;2023-03-14T04:10:23;27;25;
75946;PMS5003;64628;50.104;14.614;2023-03-14T04:12:49;29;26;
75946;PMS5003;64628;50.104;14.614;2023-03-14T04:15:14;22;21;
75946;PMS5003;64628;50.104;14.614;2023-03-14T04:17:39;23;18;
75946;PMS5003;64628;50.104;14.614;2023-03-14T04:20:05;21;19;
75946;PMS5003;64628;50.104;14.614;2023-03-14T04:22:30;24;23;
75946;PMS5003;64628;50.104;14.614;2023-03-14T04:24:55;19;18;
75946;PMS5003;64628;50.104;14.614;2023-03-14T04:27:20;23;23;
75946;PMS5003;64628;50.104;14.614;2023-03-14T04:29:46;22;18;
75946;PMS5003;64628;50.104;14.614;2023-03-14T04:32:11;11;11;
75946;PMS5003;64628;50.104;14.614;2023-03-14T04:34:37;28;22;
75946;PMS5003;64628;50.104;14.614;2023-03-14T04:37:02;17;15;
75946;PMS5003;64628;50.104;14.614;2023-03-14T04:39:28;10;9;
75946;PMS5003;64628;50.104;14.614;2023-03-14T04:41:53;9;5;
75946;PMS5003;64628;50.104;14.614;2023-03-14T04:44:19;9;8;
75946;PMS5003;64628;50.104;14.614;2023-03-14T04:46:44;7;5;
75946;PMS5003;64628;50.104;14.614;2023-03-14T04:49:09;7;7;
75946;PMS5003;64628;50.104;14.614;2023-03-14T04:51:35;5;5;
75946;PMS5003;64628;50.104;14.614;2023-03-14T04:54:00;9;8;
75946;PMS5003;64628;50.104;14.614;2023-03-14T04:56:25;3;3;
75946;PMS5003;64628;50.104;14.614;2023-03-14T04:58:51;5;4;
75946;PMS5003;64628;50.104;14.614;2023-03-14T05:01:21;4;3;
75946;PMS5003;64628;50.104;14.614;2023-03-14T05:03:41;2;1;
75946;PMS5003;64628;50.104;14.614;2023-03-14T05:06:07;1;1;
75946;PMS5003;64628;50.104;14.614;2023-03-14T05:08:32;1;1;
75946;PMS5003;64628;50.104;14.614;2023-03-14T05:10:57;1;1;
75946;PMS5003;64628;50.104;14.614;2023-03-14T05:13:23;0;0;
75946;PMS5003;64628;50.104;14.614;2023-03-14T05:15:48;2;2;
75946;PMS5003;64628;50.104;14.614;2023-03-14T05:18:13;1;1;
75946;PMS5003;64628;50.104;14.614;2023-03-14T05:20:39;3;3;
75946;PMS5003;64628;50.104;14.614;2023-03-14T05:23:04;2;2;
75946;PMS5003;64628;50.104;14.614;2023-03-14T05:25:30;2;2;
75946;PMS5003;64628;50.104;14.614;2023-03-14T05:27:55;4;2;
75946;PMS5003;64628;50.104;14.614;2023-03-14T05:30:20;3;3;
75946;PMS5003;64628;50.104;14.614;2023-03-14T05:32:45;5;3;
75946;PMS5003;64628;50.104;14.614;2023-03-14T05:35:10;4;4;
75946;PMS5003;64628;50.104;14.614;2023-03-14T05:37:36;2;2;
75946;PMS5003;64628;50.104;14.614;2023-03-14T05:40:01;6;4;
75946;PMS5003;64628;50.104;14.614;2023-03-14T05:42:27;4;4;
75946;PMS5003;64628;50.104;14.614;2023-03-14T05:44:53;9;9;
75946;PMS5003;64628;50.104;14.614;2023-03-14T05:47:18;6;3;
75946;PMS5003;64628;50.104;14.614;2023-03-14T05:49:44;6;5;
75946;PMS5003;64628;50.104;14.614;2023-03-14T05:52:09;7;7;
75946;PMS5003;64628;50.104;14.614;2023-03-14T05:54:34;7;7;
75946;PMS5003;64628;50.104;14.614;2023-03-14T05:57:00;11;5;
75946;PMS5003;64628;50.104;14.614;2023-03-14T05:59:25;5;4;
75946;PMS5003;64628;50.104;14.614;2023-03-14T06:01:50;5;3;
75946;PMS5003;64628;50.104;14.614;2023-03-14T06:04:16;4;4;
75946;PMS5003;64628;50.104;14.614;2023-03-14T06:06:41;4;4;
75946;PMS5003;64628;50.104;14.614;2023-03-14T06:09:06;3;2;
75946;PMS5003;64628;50.104;14.614;2023-03-14T06:11:32;1;1;
75946;PMS5003;64628;50.104;14.614;2023-03-14T06:13:57;0;0;
75946;PMS5003;64628;50.104;14.614;2023-03-14T06:16:22;0;0;
75946;PMS5003;64628;50.104;14.614;2023-03-14T06:18:48;0;0;
75946;PMS5003;64628;50.104;14.614;2023-03-14T06:21:13;2;1;
75946;PMS5003;64628;50.104;14.614;2023-03-14T06:23:38;2;0;
75946;PMS5003;64628;50.104;14.614;2023-03-14T06:26:04;1;1;
75946;PMS5003;64628;50.104;14.614;2023-03-14T06:28:29;1;1;
75946;PMS5003;64628;50.104;14.614;2023-03-14T06:30:54;2;1;
75946;PMS5003;64628;50.104;14.614;2023-03-14T06:33:19;3;1;
75946;PMS5003;64628;50.104;14.614;2023-03-14T06:35:45;4;3;
75946;PMS5003;64628;50.104;14.614;2023-03-14T06:38:10;5;2;
75946;PMS5003;64628;50.104;14.614;2023-03-14T06:40:35;1;1;
75946;PMS5003;64628;50.104;14.614;2023-03-14T06:43:01;2;2;
75946;PMS5003;64628;50.104;14.614;2023-03-14T06:45:26;1;1;
75946;PMS5003;64628;50.104;14.614;2023-03-14T06:47:51;2;2;
75946;PMS5003;64628;50.104;14.614;2023-03-14T06:50:17;3;1;
75946;PMS5003;64628;50.104;14.614;2023-03-14T06:52:42;2;2;
75946;PMS5003;64628;50.104;14.614;2023-03-14T06:55:07;2;2;
75946;PMS5003;64628;50.104;14.614;2023-03-14T06:57:32;4;2;
75946;PMS5003;64628;50.104;14.614;2023-03-14T06:59:58;2;2;
75946;PMS5003;64628;50.104;14.614;2023-03-14T07:02:23;2;2;
75946;PMS5003;64628;50.104;14.614;2023-03-14T07:04:48;2;2;
75946;PMS5003;64628;50.104;14.614;2023-03-14T07:07:14;2;2;
75946;PMS5003;64628;50.104;14.614;2023-03-14T07:09:39;3;2;
75946;PMS5003;64628;50.104;14.614;2023-03-14T07:12:04;1;1;
75946;PMS5003;64628;50.104;14.614;2023-03-14T07:14:30;1;1;
75946;PMS5003;64628;50.104;14.614;2023-03-14T07:16:55;1;1;
75946;PMS5003;64628;50.104;14.614;2023-03-14T07:19:20;1;1;
75946;PMS5003;64628;50.104;14.614;2023-03-14T07:21:46;1;1;
75946;PMS5003;64628;50.104;14.614;2023-03-14T07:24:11;0;0;
75946;PMS5003;64628;50.104;14.614;2023-03-14T07:26:36;2;0;
75946;PMS5003;64628;50.104;14.614;2023-03-14T07:29:01;0;0;
75946;PMS5003;64628;50.104;14.614;2023-03-14T07:31:27;2;1;
75946;PMS5003;64628;50.104;14.614;2023-03-14T07:33:52;2;0;
75946;PMS5003;64628;50.104;14.614;2023-03-14T07:36:17;0;0;
75946;PMS5003;64628;50.104;14.614;2023-03-14T07:38:42;1;1;
75946;PMS5003;64628;50.104;14.614;2023-03-14T07:41:08;0;0;
75946;PMS5003;64628;50.104;14.614;2023-03-14T07:43:33;1;1;
75946;PMS5003;64628;50.104;14.614;2023-03-14T07:45:58;1;1;
75946;PMS5003;64628;50.104;14.614;2023-03-14T07:48:23;1;1;
75946;PMS5003;64628;50.104;14.614;2023-03-14T07:50:49;1;1;
75946;PMS5003;64628;50.104;14.614;2023-03-14T07:53:14;0;0;
75946;PMS5003;64628;50.104;14.614;2023-03-14T07:55:40;1;1;
75946;PMS5003;64628;50.104;14.614;2023-03-14T07:58:05;0;0;
75946;PMS5003;64628;50.104;14.614;2023-03-14T08:00:30;1;0;
75946;PMS5003;64628;50.104;14.614;2023-03-14T08:02:55;1;1;
75946;PMS5003;64628;50.104;14.614;2023-03-14T08:05:20;1;1;
75946;PMS5003;64628;50.104;14.614;2023-03-14T08:07:46;2;2;
75946;PMS5003;64628;50.104;14.614;2023-03-14T08:10:11;14;14;
75946;PMS5003;64628;50.104;14.614;2023-03-14T08:12:36;3;3;
75946;PMS5003;64628;50.104;14.614;2023-03-14T08:15:01;1;1;
75946;PMS5003;64628;50.104;14.614;2023-03-14T08:17:27;3;3;
75946;PMS5003;64628;50.104;14.614;2023-03-14T08:19:52;3;3;
75946;PMS5003;64628;50.104;14.614;2023-03-14T08:22:17;6;6;
75946;PMS5003;64628;50.104;14.614;2023-03-14T08:24:42;6;6;
75946;PMS5003;64628;50.104;14.614;2023-03-14T08:27:08;9;9;
75946;PMS5003;64628;50.104;14.614;2023-03-14T08:29:33;1;1;
75946;PMS5003;64628;50.104;14.614;2023-03-14T08:31:58;4;4;
75946;PMS5003;64628;50.104;14.614;2023-03-14T08:34:23;9;9;
75946;PMS5003;64628;50.104;14.614;2023-03-14T08:36:49;7;6;
75946;PMS5003;64628;50.104;14.614;2023-03-14T08:39:14;5;5;
75946;PMS5003;64628;50.104;14.614;2023-03-14T08:41:39;8;6;
75946;PMS5003;64628;50.104;14.614;2023-03-14T08:44:04;7;7;
75946;PMS5003;64628;50.104;14.614;2023-03-14T08:46:30;36;36;
75946;PMS5003;64628;50.104;14.614;2023-03-14T08:48:55;16;14;
75946;PMS5003;64628;50.104;14.614;2023-03-14T08:51:21;44;44;
75946;PMS5003;64628;50.104;14.614;2023-03-14T08:53:47;28;28;
75946;PMS5003;64628;50.104;14.614;2023-03-14T08:56:12;25;25;
75946;PMS5003;64628;50.104;14.614;2023-03-14T08:58:38;37;37;
75946;PMS5003;64628;50.104;14.614;2023-03-14T09:01:04;18;18;
75946;PMS5003;64628;50.104;14.614;2023-03-14T09:03:29;22;21;
75946;PMS5003;64628;50.104;14.614;2023-03-14T09:05:55;27;27;
75946;PMS5003;64628;50.104;14.614;2023-03-14T09:08:21;29;29;
75946;PMS5003;64628;50.104;14.614;2023-03-14T09:10:46;12;10;
75946;PMS5003;64628;50.104;14.614;2023-03-14T09:13:11;21;19;
75946;PMS5003;64628;50.104;14.614;2023-03-14T09:15:37;8;8;
75946;PMS5003;64628;50.104;14.614;2023-03-14T09:18:03;5;4;
75946;PMS5003;64628;50.104;14.614;2023-03-14T09:20:28;1;1;
75946;PMS5003;64628;50.104;14.614;2023-03-14T09:22:53;1;1;
75946;PMS5003;64628;50.104;14.614;2023-03-14T09:25:18;2;2;
75946;PMS5003;64628;50.104;14.614;2023-03-14T09:27:43;3;2;
75946;PMS5003;64628;50.104;14.614;2023-03-14T09:30:09;1;1;
75946;PMS5003;64628;50.104;14.614;2023-03-14T09:32:34;2;1;
75946;PMS5003;64628;50.104;14.614;2023-03-14T09:34:59;1;1;
75946;PMS5003;64628;50.104;14.614;2023-03-14T09:37:24;2;2;
75946;PMS5003;64628;50.104;14.614;2023-03-14T09:39:49;5;5;
75946;PMS5003;64628;50.104;14.614;2023-03-14T09:42:16;7;7;
75946;PMS5003;64628;50.104;14.614;2023-03-14T09:44:42;8;7;
75946;PMS5003;64628;50.104;14.614;2023-03-14T09:47:06;12;12;
75946;PMS5003;64628;50.104;14.614;2023-03-14T09:49:31;9;9;
75946;PMS5003;64628;50.104;14.614;2023-03-14T09:51:56;16;16;
75946;PMS5003;64628;50.104;14.614;2023-03-14T09:54:28;24;24;
75946;PMS5003;64628;50.104;14.614;2023-03-14T09:56:46;29;29;
75946;PMS5003;64628;50.104;14.614;2023-03-14T09:59:11;22;20;
75946;PMS5003;64628;50.104;14.614;2023-03-14T10:01:36;34;34;
75946;PMS5003;64628;50.104;14.614;2023-03-14T10:04:04;29;28;
75946;PMS5003;64628;50.104;14.614;2023-03-14T10:06:28;4;3;
75946;PMS5003;64628;50.104;14.614;2023-03-14T10:08:53;1;1;
75946;PMS5003;64628;50.104;14.614;2023-03-14T10:11:19;5;3;
75946;PMS5003;64628;50.104;14.614;2023-03-14T10:13:47;7;5;
75946;PMS5003;64628;50.104;14.614;2023-03-14T10:16:09;25;25;
75946;PMS5003;64628;50.104;14.614;2023-03-14T10:18:34;28;27;
75946;PMS5003;64628;50.104;14.614;2023-03-14T10:21:02;22;19;
75946;PMS5003;64628;50.104;14.614;2023-03-14T10:23:27;43;43;
75946;PMS5003;64628;50.104;14.614;2023-03-14T10:30:43;15;15;
75946;PMS5003;64628;50.104;14.614;2023-03-14T10:33:09;36;34;
75946;PMS5003;64628;50.104;14.614;2023-03-14T10:35:32;18;18;
75946;PMS5003;64628;50.104;14.614;2023-03-14T10:37:59;27;27;
75946;PMS5003;64628;50.104;14.614;2023-03-14T10:40:25;36;35;
75946;PMS5003;64628;50.104;14.614;2023-03-14T10:42:48;21;20;
75946;PMS5003;64628;50.104;14.614;2023-03-14T10:47:45;28;28;
75946;PMS5003;64628;50.104;14.614;2023-03-14T10:52:29;37;37;
75946;PMS5003;64628;50.104;14.614;2023-03-14T10:54:54;41;41;
75946;PMS5003;64628;50.104;14.614;2023-03-14T10:57:20;37;37;
75946;PMS5003;64628;50.104;14.614;2023-03-14T10:59:45;16;15;
75946;PMS5003;64628;50.104;14.614;2023-03-14T11:02:18;16;15;
75946;PMS5003;64628;50.104;14.614;2023-03-14T11:04:43;41;38;
75946;PMS5003;64628;50.104;14.614;2023-03-14T11:07:03;18;18;
75946;PMS5003;64628;50.104;14.614;2023-03-14T11:09:28;12;12;
75946;PMS5003;64628;50.104;14.614;2023-03-14T11:11:52;3;3;
75946;PMS5003;64628;50.104;14.614;2023-03-14T11:14:20;1;1;
75946;PMS5003;64628;50.104;14.614;2023-03-14T11:16:46;3;1;
75946;PMS5003;64628;50.104;14.614;2023-03-14T11:19:17;2;1;
75946;PMS5003;64628;50.104;14.614;2023-03-14T11:21:35;1;1;
75946;PMS5003;64628;50.104;14.614;2023-03-14T11:24:02;5;2;
75946;PMS5003;64628;50.104;14.614;2023-03-14T11:26:26;1;1;
75946;PMS5003;64628;50.104;14.614;2023-03-14T11:28:50;3;3;
75946;PMS5003;64628;50.104;14.614;2023-03-14T11:31:16;1;1;
75946;PMS5003;64628;50.104;14.614;2023-03-14T11:33:44;3;1;
75946;PMS5003;64628;50.104;14.614;2023-03-14T11:36:06;1;1;
75946;PMS5003;64628;50.104;14.614;2023-03-14T11:38:32;1;1;
75946;PMS5003;64628;50.104;14.614;2023-03-14T11:40:56;1;0;
75946;PMS5003;64628;50.104;14.614;2023-03-14T11:43:24;2;1;
75946;PMS5003;64628;50.104;14.614;2023-03-14T11:45:46;2;2;
75946;PMS5003;64628;50.104;14.614;2023-03-14T11:48:14;2;2;
75946;PMS5003;64628;50.104;14.614;2023-03-14T11:50:36;1;1;
75946;PMS5003;64628;50.104;14.614;2023-03-14T11:53:03;4;1;
75946;PMS5003;64628;50.104;14.614;2023-03-14T11:55:28;1;1;
75946;PMS5003;64628;50.104;14.614;2023-03-14T11:57:53;0;0;
75946;PMS5003;64628;50.104;14.614;2023-03-14T12:00:18;1;1;
75946;PMS5003;64628;50.104;14.614;2023-03-14T12:02:45;1;1;
75946;PMS5003;64628;50.104;14.614;2023-03-14T12:07:34;5;5;
75946;PMS5003;64628;50.104;14.614;2023-03-14T12:09:59;1;1;
75946;PMS5003;64628;50.104;14.614;2023-03-14T12:12:25;3;3;
75946;PMS5003;64628;50.104;14.614;2023-03-14T12:14:52;1;1;
75946;PMS5003;64628;50.104;14.614;2023-03-14T12:17:18;2;2;
75946;PMS5003;64628;50.104;14.614;2023-03-14T12:19:40;1;1;
75946;PMS5003;64628;50.104;14.614;2023-03-14T12:22:13;1;1;
75946;PMS5003;64628;50.104;14.614;2023-03-14T12:24:31;0;0;
75946;PMS5003;64628;50.104;14.614;2023-03-14T12:26:56;6;2;
75946;PMS5003;64628;50.104;14.614;2023-03-14T12:29:21;1;1;
75946;PMS5003;64628;50.104;14.614;2023-03-14T12:31:47;2;1;
75946;PMS5003;64628;50.104;14.614;2023-03-14T12:36:50;2;2;
75946;PMS5003;64628;50.104;14.614;2023-03-14T12:39:05;2;2;
75946;PMS5003;64628;50.104;14.614;2023-03-14T12:41:28;1;1;
75946;PMS5003;64628;50.104;14.614;2023-03-14T12:43:52;1;1;
75946;PMS5003;64628;50.104;14.614;2023-03-14T12:46:20;1;1;
75946;PMS5003;64628;50.104;14.614;2023-03-14T12:48:43;2;2;
75946;PMS5003;64628;50.104;14.614;2023-03-14T12:51:12;1;1;
75946;PMS5003;64628;50.104;14.614;2023-03-14T12:53:39;1;1;
75946;PMS5003;64628;50.104;14.614;2023-03-14T12:56:01;4;1;
75946;PMS5003;64628;50.104;14.614;2023-03-14T12:58:25;2;1;
75946;PMS5003;64628;50.104;14.614;2023-03-14T13:00:51;2;2;
75946;PMS5003;64628;50.104;14.614;2023-03-14T13:03:17;2;2;
75946;PMS5003;64628;50.104;14.614;2023-03-14T13:08:06;2;2;
75946;PMS5003;64628;50.104;14.614;2023-03-14T13:10:30;1;1;
75946;PMS5003;64628;50.104;14.614;2023-03-14T13:12:56;0;0;
75946;PMS5003;64628;50.104;14.614;2023-03-14T13:15:22;2;0;
75946;PMS5003;64628;50.104;14.614;2023-03-14T13:17:46;0;0;
75946;PMS5003;64628;50.104;14.614;2023-03-14T13:20:13;2;2;
75946;PMS5003;64628;50.104;14.614;2023-03-14T13:22:36;8;7;
75946;PMS5003;64628;50.104;14.614;2023-03-14T13:25:02;9;9;
75946;PMS5003;64628;50.104;14.614;2023-03-14T13:27:27;2;2;
75946;PMS5003;64628;50.104;14.614;2023-03-14T13:29:52;2;2;
75946;PMS5003;64628;50.104;14.614;2023-03-14T13:32:19;0;0;
75946;PMS5003;64628;50.104;14.614;2023-03-14T13:34:42;2;2;
75946;PMS5003;64628;50.104;14.614;2023-03-14T13:39:33;3;2;
75946;PMS5003;64628;50.104;14.614;2023-03-14T13:41:59;5;5;
75946;PMS5003;64628;50.104;14.614;2023-03-14T13:44:24;17;17;
75946;PMS5003;64628;50.104;14.614;2023-03-14T13:46:49;9;9;
75946;PMS5003;64628;50.104;14.614;2023-03-14T13:49:17;8;7;
75946;PMS5003;64628;50.104;14.614;2023-03-14T13:51:39;6;6;
75946;PMS5003;64628;50.104;14.614;2023-03-14T13:56:31;4;4;
75946;PMS5003;64628;50.104;14.614;2023-03-14T13:58:55;2;2;
75946;PMS5003;64628;50.104;14.614;2023-03-14T14:01:21;2;2;
75946;PMS5003;64628;50.104;14.614;2023-03-14T14:03:47;1;1;
75946;PMS5003;64628;50.104;14.614;2023-03-14T14:08:38;2;2;
75946;PMS5003;64628;50.104;14.614;2023-03-14T14:11:01;1;1;
75946;PMS5003;64628;50.104;14.614;2023-03-14T14:13:27;4;3;
75946;PMS5003;64628;50.104;14.614;2023-03-14T14:15:52;7;4;
75946;PMS5003;64628;50.104;14.614;2023-03-14T14:18:18;20;20;
75946;PMS5003;64628;50.104;14.614;2023-03-14T14:20:44;12;10;
75946;PMS5003;64628;50.104;14.614;2023-03-14T14:23:09;1;1;
75946;PMS5003;64628;50.104;14.614;2023-03-14T14:25:33;2;2;
75946;PMS5003;64628;50.104;14.614;2023-03-14T14:27:59;2;1;
75946;PMS5003;64628;50.104;14.614;2023-03-14T14:30:27;1;1;
75946;PMS5003;64628;50.104;14.614;2023-03-14T14:32:50;3;2;
75946;PMS5003;64628;50.104;14.614;2023-03-14T14:37:41;1;1;
75946;PMS5003;64628;50.104;14.614;2023-03-14T14:40:07;2;2;
75946;PMS5003;64628;50.104;14.614;2023-03-14T14:42:30;4;4;
75946;PMS5003;64628;50.104;14.614;2023-03-14T14:44:55;1;1;
75946;PMS5003;64628;50.104;14.614;2023-03-14T14:47:21;2;1;
75946;PMS5003;64628;50.104;14.614;2023-03-14T14:49:46;3;2;
75946;PMS5003;64628;50.104;14.614;2023-03-14T14:52:13;2;1;
75946;PMS5003;64628;50.104;14.614;2023-03-14T14:54:37;3;2;
75946;PMS5003;64628;50.104;14.614;2023-03-14T14:57:02;2;2;
75946;PMS5003;64628;50.104;14.614;2023-03-14T14:59:27;1;1;
75946;PMS5003;64628;50.104;14.614;2023-03-14T15:01:54;3;2;
75946;PMS5003;64628;50.104;14.614;2023-03-14T15:04:17;3;3;
75946;PMS5003;64628;50.104;14.614;2023-03-14T15:06:43;3;2;
75946;PMS5003;64628;50.104;14.614;2023-03-14T15:09:08;2;2;
75946;PMS5003;64628;50.104;14.614;2023-03-14T15:11:33;3;2;
75946;PMS5003;64628;50.104;14.614;2023-03-14T15:13:59;3;2;
75946;PMS5003;64628;50.104;14.614;2023-03-14T15:16:27;3;2;
75946;PMS5003;64628;50.104;14.614;2023-03-14T15:18:52;3;3;
75946;PMS5003;64628;50.104;14.614;2023-03-14T15:21:15;26;26;
75946;PMS5003;64628;50.104;14.614;2023-03-14T15:23:40;12;12;
75946;PMS5003;64628;50.104;14.614;2023-03-14T15:26:08;15;15;
75946;PMS5003;64628;50.104;14.614;2023-03-14T15:28:31;14;14;
75946;PMS5003;64628;50.104;14.614;2023-03-14T15:30:57;19;19;
75946;PMS5003;64628;50.104;14.614;2023-03-14T15:33:21;16;16;
75946;PMS5003;64628;50.104;14.614;2023-03-14T15:35:47;23;19;
75946;PMS5003;64628;50.104;14.614;2023-03-14T15:38:13;60;59;
75946;PMS5003;64628;50.104;14.614;2023-03-14T15:40:37;28;27;
75946;PMS5003;64628;50.104;14.614;2023-03-14T15:43:03;23;19;
75946;PMS5003;64628;50.104;14.614;2023-03-14T15:45:28;34;34;
75946;PMS5003;64628;50.104;14.614;2023-03-14T15:47:53;17;16;
75946;PMS5003;64628;50.104;14.614;2023-03-14T15:50:19;8;6;
75946;PMS5003;64628;50.104;14.614;2023-03-14T15:52:44;12;8;
75946;PMS5003;64628;50.104;14.614;2023-03-14T15:55:10;7;5;
75946;PMS5003;64628;50.104;14.614;2023-03-14T15:57:35;8;6;
75946;PMS5003;64628;50.104;14.614;2023-03-14T16:00:00;12;11;
75946;PMS5003;64628;50.104;14.614;2023-03-14T16:02:25;5;5;
75946;PMS5003;64628;50.104;14.614;2023-03-14T16:04:51;6;5;
75946;PMS5003;64628;50.104;14.614;2023-03-14T16:07:16;4;4;
75946;PMS5003;64628;50.104;14.614;2023-03-14T16:09:41;7;5;
75946;PMS5003;64628;50.104;14.614;2023-03-14T16:12:07;9;7;
75946;PMS5003;64628;50.104;14.614;2023-03-14T16:14:32;6;5;
75946;PMS5003;64628;50.104;14.614;2023-03-14T16:16:57;5;5;
75946;PMS5003;64628;50.104;14.614;2023-03-14T16:19:23;4;3;
75946;PMS5003;64628;50.104;14.614;2023-03-14T16:21:48;5;5;
75946;PMS5003;64628;50.104;14.614;2023-03-14T16:24:13;4;4;
75946;PMS5003;64628;50.104;14.614;2023-03-14T16:26:38;5;3;
75946;PMS5003;64628;50.104;14.614;2023-03-14T16:29:04;2;2;
75946;PMS5003;64628;50.104;14.614;2023-03-14T16:31:29;5;3;